sensor_id;sensor_type;location;lat;lon;timestamp;pressure;altitude;pressure_sealevel;temperature;humidity
78741;BME280;68062;48.726;9.370;2023-04-25T00:00:23;98148.00;;;7.44;100.00
78741;BME280;68062;48.726;9.370;2023-04-25T00:02:50;98142.00;;;7.25;100.00
78741;BME280;68062;48.726;9.370;2023-04-25T00:05:17;98149.66;;;7.08;100.00
78741;BME280;68062;48.726;9.370;2023-04-25T00:07:45;98149.63;;;6.96;100.00
78741;BME280;68062;48.726;9.370;2023-04-25T00:10:12;98147.94;;;7.15;100.00
78741;BME280;68062;48.726;9.370;2023-04-25T00:12:41;98151.41;;;7.31;100.00
78741;BME280;68062;48.726;9.370;2023-04-25T00:15:09;98153.94;;;7.35;100.00
78741;BME280;68062;48.726;9.370;2023-04-25T00:17:36;98147.94;;;7.10;100.00
78741;BME280;68062;48.726;9.370;2023-04-25T00:20:04;98147.09;;;7.25;100.00
78741;BME280;68062;48.726;9.370;2023-04-25T00:22:34;98142.84;;;7.33;100.00
78741;BME280;68062;48.726;9.370;2023-04-25T00:25:03;98142.00;;;7.24;100.00
78741;BME280;68062;48.726;9.370;2023-04-25T00:27:29;98132.63;;;7.32;100.00
78741;BME280;68062;48.726;9.370;2023-04-25T00:29:57;98127.53;;;7.35;100.00
78741;BME280;68062;48.726;9.370;2023-04-25T00:32:24;98133.44;;;7.06;100.00
78741;BME280;68062;48.726;9.370;2023-04-25T00:34:51;98136.81;;;6.89;100.00
78741;BME280;68062;48.726;9.370;2023-04-25T00:37:18;98136.78;;;6.85;100.00
78741;BME280;68062;48.726;9.370;2023-04-25T00:39:45;98140.19;;;6.79;100.00
78741;BME280;68062;48.726;9.370;2023-04-25T00:42:12;98143.56;;;6.73;100.00
78741;BME280;68062;48.726;9.370;2023-04-25T00:44:39;98125.66;;;6.70;100.00
78741;BME280;68062;48.726;9.370;2023-04-25T00:47:08;98146.19;;;6.92;100.00
78741;BME280;68062;48.726;9.370;2023-04-25T00:49:34;98141.06;;;6.84;100.00
78741;BME280;68062;48.726;9.370;2023-04-25T00:52:01;98138.47;;;6.72;100.00
78741;BME280;68062;48.726;9.370;2023-04-25T00:54:28;98134.19;;;6.75;100.00
78741;BME280;68062;48.726;9.370;2023-04-25T00:56:56;98127.41;;;6.82;100.00
78741;BME280;68062;48.726;9.370;2023-04-25T00:59:23;98124.84;;;6.76;100.00
78741;BME280;68062;48.726;9.370;2023-04-25T01:01:50;98119.72;;;6.77;100.00
78741;BME280;68062;48.726;9.370;2023-04-25T01:04:18;98117.19;;;6.82;100.00
78741;BME280;68062;48.726;9.370;2023-04-25T01:06:46;98116.44;;;7.33;100.00
78741;BME280;68062;48.726;9.370;2023-04-25T01:09:13;98115.59;;;7.43;100.00
78741;BME280;68062;48.726;9.370;2023-04-25T01:11:40;98114.72;;;7.55;100.00
78741;BME280;68062;48.726;9.370;2023-04-25T01:14:07;98107.06;;;7.52;100.00
78741;BME280;68062;48.726;9.370;2023-04-25T01:16:34;98113.00;;;7.18;100.00
78741;BME280;68062;48.726;9.370;2023-04-25T01:19:05;98105.28;;;6.95;100.00
78741;BME280;68062;48.726;9.370;2023-04-25T01:21:36;98107.00;;;6.98;100.00
78741;BME280;68062;48.726;9.370;2023-04-25T01:24:03;98103.56;;;6.88;100.00
78741;BME280;68062;48.726;9.370;2023-04-25T01:26:31;98122.28;;;6.84;100.00
78741;BME280;68062;48.726;9.370;2023-04-25T01:28:58;98104.41;;;6.79;100.00
78741;BME280;68062;48.726;9.370;2023-04-25T01:31:26;98101.00;;;6.82;100.00
78741;BME280;68062;48.726;9.370;2023-04-25T01:33:53;98094.25;;;7.26;100.00
78741;BME280;68062;48.726;9.370;2023-04-25T01:36:21;98092.56;;;7.39;100.00
78741;BME280;68062;48.726;9.370;2023-04-25T01:38:49;98092.56;;;7.34;100.00
78741;BME280;68062;48.726;9.370;2023-04-25T01:41:17;98093.38;;;7.16;100.00
78741;BME280;68062;48.726;9.370;2023-04-25T01:43:44;98091.66;;;7.09;100.00
78741;BME280;68062;48.726;9.370;2023-04-25T01:46:11;98092.53;;;7.03;100.00
78741;BME280;68062;48.726;9.370;2023-04-25T01:48:38;98104.47;;;7.01;100.00
78741;BME280;68062;48.726;9.370;2023-04-25T01:51:05;98106.16;;;6.99;100.00
78741;BME280;68062;48.726;9.370;2023-04-25T01:53:33;98103.63;;;7.08;100.00
78741;BME280;68062;48.726;9.370;2023-04-25T01:56:04;98098.47;;;6.97;100.00
78741;BME280;68062;48.726;9.370;2023-04-25T01:58:33;98095.94;;;7.05;100.00
78741;BME280;68062;48.726;9.370;2023-04-25T02:01:23;98099.34;;;7.15;100.00
78741;BME280;68062;48.726;9.370;2023-04-25T02:04:09;98093.38;;;6.99;100.00
78741;BME280;68062;48.726;9.370;2023-04-25T02:06:37;98101.91;;;7.15;100.00
78741;BME280;68062;48.726;9.370;2023-04-25T02:09:05;98092.56;;;7.28;100.00
78741;BME280;68062;48.726;9.370;2023-04-25T02:11:34;98096.78;;;7.12;100.00
78741;BME280;68062;48.726;9.370;2023-04-25T02:14:27;98092.53;;;7.07;100.00
78741;BME280;68062;48.726;9.370;2023-04-25T02:17:17;98099.34;;;6.98;100.00
78741;BME280;68062;48.726;9.370;2023-04-25T02:19:44;98095.03;;;6.80;100.00
78741;BME280;68062;48.726;9.370;2023-04-25T02:22:11;98101.84;;;6.73;100.00
78741;BME280;68062;48.726;9.370;2023-04-25T02:24:39;98095.06;;;6.84;100.00
78741;BME280;68062;48.726;9.370;2023-04-25T02:27:08;98091.66;;;6.85;100.00
78741;BME280;68062;48.726;9.370;2023-04-25T02:29:35;98089.06;;;6.73;100.00
78741;BME280;68062;48.726;9.370;2023-04-25T02:32:01;98079.72;;;6.95;100.00
78741;BME280;68062;48.726;9.370;2023-04-25T02:34:28;98080.53;;;6.82;100.00
78741;BME280;68062;48.726;9.370;2023-04-25T02:36:54;98085.59;;;6.58;100.00
78741;BME280;68062;48.726;9.370;2023-04-25T02:39:21;98073.59;;;6.36;100.00
78741;BME280;68062;48.726;9.370;2023-04-25T02:41:51;98077.84;;;6.32;100.00
78741;BME280;68062;48.726;9.370;2023-04-25T02:44:19;98084.72;;;6.47;100.00
78741;BME280;68062;48.726;9.370;2023-04-25T02:46:46;98080.47;;;6.44;100.00
78741;BME280;68062;48.726;9.370;2023-04-25T02:49:13;98074.47;;;6.39;100.00
78741;BME280;68062;48.726;9.370;2023-04-25T02:51:39;98075.31;;;6.38;100.00
78741;BME280;68062;48.726;9.370;2023-04-25T02:54:07;98074.47;;;6.39;100.00
78741;BME280;68062;48.726;9.370;2023-04-25T02:56:38;98074.53;;;6.52;100.00
78741;BME280;68062;48.726;9.370;2023-04-25T02:59:09;98077.06;;;6.53;100.00
78741;BME280;68062;48.726;9.370;2023-04-25T03:01:38;98075.38;;;6.47;100.00
78741;BME280;68062;48.726;9.370;2023-04-25T03:04:04;98063.31;;;6.15;100.00
78741;BME280;68062;48.726;9.370;2023-04-25T03:06:31;98081.19;;;6.15;100.00
78741;BME280;68062;48.726;9.370;2023-04-25T03:08:58;98076.03;;;6.09;100.00
78741;BME280;68062;48.726;9.370;2023-04-25T03:11:25;98071.84;;;6.17;100.00
78741;BME280;68062;48.726;9.370;2023-04-25T03:13:52;98074.59;;;6.78;100.00
78741;BME280;68062;48.726;9.370;2023-04-25T03:16:19;98065.22;;;6.82;100.00
78741;BME280;68062;48.726;9.370;2023-04-25T03:18:48;98065.22;;;6.88;100.00
78741;BME280;68062;48.726;9.370;2023-04-25T03:21:16;98066.91;;;6.69;100.00
78741;BME280;68062;48.726;9.370;2023-04-25T03:23:42;98072.78;;;6.41;100.00
78741;BME280;68062;48.726;9.370;2023-04-25T03:26:09;98061.66;;;6.28;100.00
78741;BME280;68062;48.726;9.370;2023-04-25T03:28:36;98065.91;;;6.29;100.00
78741;BME280;68062;48.726;9.370;2023-04-25T03:31:03;98064.22;;;6.28;100.00
78741;BME280;68062;48.726;9.370;2023-04-25T03:33:30;98068.47;;;6.29;100.00
78741;BME280;68062;48.726;9.370;2023-04-25T03:35:58;98062.47;;;6.20;100.00
78741;BME280;68062;48.726;9.370;2023-04-25T03:38:26;98067.59;;;6.23;100.00
78741;BME280;68062;48.726;9.370;2023-04-25T03:40:53;98070.28;;;6.54;100.00
78741;BME280;68062;48.726;9.370;2023-04-25T03:43:26;98065.19;;;6.78;100.00
78741;BME280;68062;48.726;9.370;2023-04-25T03:46:01;98063.53;;;6.88;100.00
78741;BME280;68062;48.726;9.370;2023-04-25T03:48:28;98056.69;;;6.89;100.00
78741;BME280;68062;48.726;9.370;2023-04-25T03:50:54;98063.50;;;6.87;100.00
78741;BME280;68062;48.726;9.370;2023-04-25T03:53:23;98061.78;;;6.61;100.00
78741;BME280;68062;48.726;9.370;2023-04-25T03:56:09;98066.84;;;6.47;100.00
78741;BME280;68062;48.726;9.370;2023-04-25T03:58:37;98063.38;;;6.31;100.00
78741;BME280;68062;48.726;9.370;2023-04-25T04:01:05;98059.03;;;6.08;100.00
78741;BME280;68062;48.726;9.370;2023-04-25T04:03:36;98061.41;;;5.85;100.00
78741;BME280;68062;48.726;9.370;2023-04-25T04:06:03;98056.25;;;5.75;100.00
78741;BME280;68062;48.726;9.370;2023-04-25T04:08:35;98072.31;;;5.62;100.00
78741;BME280;68062;48.726;9.370;2023-04-25T04:11:02;98072.34;;;5.64;100.00
78741;BME280;68062;48.726;9.370;2023-04-25T04:13:29;98074.03;;;5.63;100.00
78741;BME280;68062;48.726;9.370;2023-04-25T04:15:56;98075.06;;;5.88;100.00
78741;BME280;68062;48.726;9.370;2023-04-25T04:18:23;98070.13;;;6.18;100.00
78741;BME280;68062;48.726;9.370;2023-04-25T04:20:50;98065.97;;;6.48;100.00
78741;BME280;68062;48.726;9.370;2023-04-25T04:23:17;98070.25;;;6.55;100.00
78741;BME280;68062;48.726;9.370;2023-04-25T04:25:45;98067.66;;;6.43;100.00
78741;BME280;68062;48.726;9.370;2023-04-25T04:28:28;98066.69;;;6.16;100.00
78741;BME280;68062;48.726;9.370;2023-04-25T04:31:14;98072.59;;;6.02;100.00
78741;BME280;68062;48.726;9.370;2023-04-25T04:33:43;98074.25;;;5.96;100.00
78741;BME280;68062;48.726;9.370;2023-04-25T04:36:10;98074.41;;;6.24;100.00
78741;BME280;68062;48.726;9.370;2023-04-25T04:38:37;98079.66;;;6.55;100.00
78741;BME280;68062;48.726;9.370;2023-04-25T04:41:05;98089.03;;;6.68;100.00
78741;BME280;68062;48.726;9.370;2023-04-25T04:43:52;98087.31;;;6.62;100.00
78741;BME280;68062;48.726;9.370;2023-04-25T04:46:39;98087.28;;;6.48;100.00
78741;BME280;68062;48.726;9.370;2023-04-25T04:49:36;98094.13;;;6.63;100.00
78741;BME280;68062;48.726;9.370;2023-04-25T04:52:21;98094.13;;;6.59;100.00
78741;BME280;68062;48.726;9.370;2023-04-25T04:54:58;98095.84;;;6.61;100.00
78741;BME280;68062;48.726;9.370;2023-04-25T04:57:47;98089.06;;;6.84;100.00
78741;BME280;68062;48.726;9.370;2023-04-25T05:00:37;98088.22;;;6.82;100.00
78741;BME280;68062;48.726;9.370;2023-04-25T05:03:11;98101.88;;;6.91;100.00
78741;BME280;68062;48.726;9.370;2023-04-25T05:06:05;98102.75;;;7.06;100.00
78741;BME280;68062;48.726;9.370;2023-04-25T05:08:54;98101.91;;;7.05;100.00
78741;BME280;68062;48.726;9.370;2023-04-25T05:11:49;98106.16;;;6.99;100.00
78741;BME280;68062;48.726;9.370;2023-04-25T05:14:29;98101.88;;;6.93;100.00
78741;BME280;68062;48.726;9.370;2023-04-25T05:17:12;98106.16;;;7.03;100.00
78741;BME280;68062;48.726;9.370;2023-04-25T05:20:14;98090.81;;;7.10;100.00
78741;BME280;68062;48.726;9.370;2023-04-25T05:22:59;98101.94;;;7.33;100.00
78741;BME280;68062;48.726;9.370;2023-04-25T05:25:52;98097.66;;;7.35;100.00
78741;BME280;68062;48.726;9.370;2023-04-25T05:28:45;98105.34;;;7.32;100.00
78741;BME280;68062;48.726;9.370;2023-04-25T05:31:25;98091.69;;;7.18;100.00
78741;BME280;68062;48.726;9.370;2023-04-25T05:33:57;98106.19;;;7.28;100.00
78741;BME280;68062;48.726;9.370;2023-04-25T05:36:33;98100.22;;;7.73;100.00
78741;BME280;68062;48.726;9.370;2023-04-25T05:38:59;98101.03;;;8.06;100.00
78741;BME280;68062;48.726;9.370;2023-04-25T05:41:59;98104.44;;;8.05;100.00
78741;BME280;68062;48.726;9.370;2023-04-25T05:44:44;98101.06;;;7.95;99.53
78741;BME280;68062;48.726;9.370;2023-04-25T05:47:23;98109.59;;;7.71;98.75
78741;BME280;68062;48.726;9.370;2023-04-25T05:50:13;98102.78;;;7.76;94.14
78741;BME280;68062;48.726;9.370;2023-04-25T05:52:50;98111.34;;;7.51;94.67
78741;BME280;68062;48.726;9.370;2023-04-25T05:55:26;98106.19;;;7.56;95.53
78741;BME280;68062;48.726;9.370;2023-04-25T05:57:53;98104.50;;;7.68;96.87
78741;BME280;68062;48.726;9.370;2023-04-25T06:00:21;98101.06;;;7.84;91.75
78741;BME280;68062;48.726;9.370;2023-04-25T06:02:50;98102.72;;;7.99;92.83
78741;BME280;68062;48.726;9.370;2023-04-25T06:05:18;98102.72;;;8.13;92.75
78741;BME280;68062;48.726;9.370;2023-04-25T06:07:46;98104.25;;;8.65;89.20
78741;BME280;68062;48.726;9.370;2023-04-25T06:10:13;98101.44;;;9.12;84.95
78741;BME280;68062;48.726;9.370;2023-04-25T06:12:41;98102.84;;;9.53;82.28
78741;BME280;68062;48.726;9.370;2023-04-25T06:15:08;98095.72;;;9.82;82.98
78741;BME280;68062;48.726;9.370;2023-04-25T06:17:35;98099.34;;;9.59;81.51
78741;BME280;68062;48.726;9.370;2023-04-25T06:20:05;98100.31;;;9.50;80.37
78741;BME280;68062;48.726;9.370;2023-04-25T06:22:32;98096.75;;;9.65;79.76
78741;BME280;68062;48.726;9.370;2023-04-25T06:24:59;98107.59;;;8.81;82.35
78741;BME280;68062;48.726;9.370;2023-04-25T06:27:27;98107.75;;;8.41;83.50
78741;BME280;68062;48.726;9.370;2023-04-25T06:29:53;98094.97;;;8.24;82.89
78741;BME280;68062;48.726;9.370;2023-04-25T06:32:20;98099.31;;;8.02;80.44
78741;BME280;68062;48.726;9.370;2023-04-25T06:34:47;98089.94;;;7.96;80.69
78741;BME280;68062;48.726;9.370;2023-04-25T06:37:15;98083.06;;;8.14;80.37
78741;BME280;68062;48.726;9.370;2023-04-25T06:39:42;98088.19;;;8.14;81.11
78741;BME280;68062;48.726;9.370;2023-04-25T06:42:09;98077.91;;;8.23;81.58
78741;BME280;68062;48.726;9.370;2023-04-25T06:44:44;98082.13;;;8.41;82.03
78741;BME280;68062;48.726;9.370;2023-04-25T06:47:11;98070.25;;;8.21;82.53
78741;BME280;68062;48.726;9.370;2023-04-25T06:49:40;98066.72;;;8.43;80.66
78741;BME280;68062;48.726;9.370;2023-04-25T06:52:07;98077.06;;;8.25;81.59
78741;BME280;68062;48.726;9.370;2023-04-25T06:54:37;98089.00;;;8.27;80.49
78741;BME280;68062;48.726;9.370;2023-04-25T06:57:15;98080.41;;;8.51;81.38
78741;BME280;68062;48.726;9.370;2023-04-25T06:59:43;98082.94;;;8.48;82.58
78741;BME280;68062;48.726;9.370;2023-04-25T07:02:09;98086.34;;;8.59;80.95
78741;BME280;68062;48.726;9.370;2023-04-25T07:04:38;98088.91;;;8.64;80.34
78741;BME280;68062;48.726;9.370;2023-04-25T07:07:05;98092.34;;;8.55;80.06
78741;BME280;68062;48.726;9.370;2023-04-25T07:09:46;98100.00;;;8.61;82.03
78741;BME280;68062;48.726;9.370;2023-04-25T07:12:12;98094.97;;;8.27;83.57
78741;BME280;68062;48.726;9.370;2023-04-25T07:14:39;98095.81;;;8.37;84.70
78741;BME280;68062;48.726;9.370;2023-04-25T07:17:07;98097.47;;;8.46;84.22
78741;BME280;68062;48.726;9.370;2023-04-25T07:19:34;98100.03;;;8.43;85.41
78741;BME280;68062;48.726;9.370;2023-04-25T07:22:04;98103.47;;;8.46;83.44
78741;BME280;68062;48.726;9.370;2023-04-25T07:24:32;98104.34;;;8.33;86.16
78741;BME280;68062;48.726;9.370;2023-04-25T07:27:00;98096.69;;;8.25;86.72
78741;BME280;68062;48.726;9.370;2023-04-25T07:29:46;98098.34;;;8.51;84.96
78741;BME280;68062;48.726;9.370;2023-04-25T07:32:13;98100.06;;;8.49;85.33
78741;BME280;68062;48.726;9.370;2023-04-25T07:34:41;98100.09;;;8.27;86.76
78741;BME280;68062;48.726;9.370;2023-04-25T07:37:08;98107.81;;;8.08;88.84
78741;BME280;68062;48.726;9.370;2023-04-25T07:39:44;98113.78;;;8.17;88.76
78741;BME280;68062;48.726;9.370;2023-04-25T07:42:13;98115.53;;;8.04;89.93
78741;BME280;68062;48.726;9.370;2023-04-25T07:44:42;98118.06;;;8.13;90.15
78741;BME280;68062;48.726;9.370;2023-04-25T07:47:11;98122.34;;;8.03;91.17
78741;BME280;68062;48.726;9.370;2023-04-25T07:49:38;98131.78;;;7.87;95.49
78741;BME280;68062;48.726;9.370;2023-04-25T07:52:05;98135.22;;;7.82;96.94
78741;BME280;68062;48.726;9.370;2023-04-25T07:54:35;98126.66;;;7.89;92.14
78741;BME280;68062;48.726;9.370;2023-04-25T07:57:10;98131.78;;;7.83;95.95
78741;BME280;68062;48.726;9.370;2023-04-25T07:59:40;98145.44;;;7.78;98.46
78741;BME280;68062;48.726;9.370;2023-04-25T08:02:07;98143.72;;;7.79;98.26
78741;BME280;68062;48.726;9.370;2023-04-25T08:04:35;98131.78;;;7.87;97.15
78741;BME280;68062;48.726;9.370;2023-04-25T08:07:04;98153.13;;;7.86;96.67
78741;BME280;68062;48.726;9.370;2023-04-25T08:09:39;98155.69;;;7.91;99.45
78741;BME280;68062;48.726;9.370;2023-04-25T08:12:12;98165.06;;;7.75;100.00
78741;BME280;68062;48.726;9.370;2023-04-25T08:14:41;98159.09;;;7.84;100.00
78741;BME280;68062;48.726;9.370;2023-04-25T08:17:09;98152.22;;;8.01;100.00
78741;BME280;68062;48.726;9.370;2023-04-25T08:19:39;98158.19;;;8.13;98.78
78741;BME280;68062;48.726;9.370;2023-04-25T08:22:10;98147.16;;;7.86;100.00
78741;BME280;68062;48.726;9.370;2023-04-25T08:24:47;98181.28;;;7.78;100.00
78741;BME280;68062;48.726;9.370;2023-04-25T08:27:16;98182.97;;;7.75;100.00
78741;BME280;68062;48.726;9.370;2023-04-25T08:29:44;98178.72;;;7.82;100.00
78741;BME280;68062;48.726;9.370;2023-04-25T08:32:11;98184.69;;;7.73;100.00
78741;BME280;68062;48.726;9.370;2023-04-25T08:34:46;98180.44;;;7.79;100.00
78741;BME280;68062;48.726;9.370;2023-04-25T08:37:13;98192.38;;;7.76;100.00
78741;BME280;68062;48.726;9.370;2023-04-25T08:39:49;98198.34;;;7.87;100.00
78741;BME280;68062;48.726;9.370;2023-04-25T08:42:37;98197.50;;;7.80;100.00
78741;BME280;68062;48.726;9.370;2023-04-25T08:45:07;98193.22;;;7.48;100.00
78741;BME280;68062;48.726;9.370;2023-04-25T08:47:38;98209.41;;;7.55;100.00
78741;BME280;68062;48.726;9.370;2023-04-25T08:50:07;98217.06;;;7.49;100.00
78741;BME280;68062;48.726;9.370;2023-04-25T08:52:36;98212.81;;;7.40;100.00
78741;BME280;68062;48.726;9.370;2023-04-25T08:55:07;98219.59;;;7.36;100.00
78741;BME280;68062;48.726;9.370;2023-04-25T08:57:37;98223.00;;;7.29;100.00
78741;BME280;68062;48.726;9.370;2023-04-25T09:00:06;98227.28;;;7.40;100.00
78741;BME280;68062;48.726;9.370;2023-04-25T09:02:36;98224.75;;;7.55;100.00
78741;BME280;68062;48.726;9.370;2023-04-25T09:05:04;98228.97;;;7.34;100.00
78741;BME280;68062;48.726;9.370;2023-04-25T09:07:31;98230.69;;;7.39;100.00
78741;BME280;68062;48.726;9.370;2023-04-25T09:09:58;98230.72;;;7.45;100.00
78741;BME280;68062;48.726;9.370;2023-04-25T09:12:29;98212.75;;;7.18;100.00
78741;BME280;68062;48.726;9.370;2023-04-25T09:15:09;98240.91;;;7.25;100.00
78741;BME280;68062;48.726;9.370;2023-04-25T09:18:01;98241.78;;;7.36;100.00
78741;BME280;68062;48.726;9.370;2023-04-25T09:20:41;98248.63;;;7.40;100.00
78741;BME280;68062;48.726;9.370;2023-04-25T09:23:07;98250.28;;;7.33;100.00
78741;BME280;68062;48.726;9.370;2023-04-25T09:25:37;98244.25;;;7.16;100.00
78741;BME280;68062;48.726;9.370;2023-04-25T09:28:06;98255.41;;;7.30;100.00
78741;BME280;68062;48.726;9.370;2023-04-25T09:30:36;98257.97;;;7.33;100.00
78741;BME280;68062;48.726;9.370;2023-04-25T09:33:28;98237.44;;;7.07;100.00
78741;BME280;68062;48.726;9.370;2023-04-25T09:36:02;98260.50;;;7.26;100.00
78741;BME280;68062;48.726;9.370;2023-04-25T09:38:59;98270.75;;;7.36;100.00
78741;BME280;68062;48.726;9.370;2023-04-25T09:41:28;98271.63;;;7.31;100.00
78741;BME280;68062;48.726;9.370;2023-04-25T09:43:58;98266.47;;;7.26;100.00
78741;BME280;68062;48.726;9.370;2023-04-25T09:46:34;98274.09;;;7.14;100.00
78741;BME280;68062;48.726;9.370;2023-04-25T09:49:06;98261.28;;;7.11;100.00
78741;BME280;68062;48.726;9.370;2023-04-25T09:51:56;98287.69;;;7.06;100.00
78741;BME280;68062;48.726;9.370;2023-04-25T09:54:26;98294.56;;;7.15;100.00
78741;BME280;68062;48.726;9.370;2023-04-25T09:57:07;98298.63;;;6.73;100.00
78741;BME280;68062;48.726;9.370;2023-04-25T09:59:38;98299.47;;;6.76;100.00
78741;BME280;68062;48.726;9.370;2023-04-25T10:02:08;98303.72;;;6.77;100.00
78741;BME280;68062;48.726;9.370;2023-04-25T10:04:38;98297.75;;;6.75;100.00
78741;BME280;68062;48.726;9.370;2023-04-25T10:07:18;98306.38;;;6.90;100.00
78741;BME280;68062;48.726;9.370;2023-04-25T10:09:48;98308.03;;;6.82;100.00
78741;BME280;68062;48.726;9.370;2023-04-25T10:12:16;98310.59;;;6.80;100.00
78741;BME280;68062;48.726;9.370;2023-04-25T10:14:44;98314.81;;;6.78;100.00
78741;BME280;68062;48.726;9.370;2023-04-25T10:17:14;98319.94;;;6.80;100.00
78741;BME280;68062;48.726;9.370;2023-04-25T10:19:44;98318.09;;;6.58;100.00
78741;BME280;68062;48.726;9.370;2023-04-25T10:22:14;98313.72;;;6.42;100.00
78741;BME280;68062;48.726;9.370;2023-04-25T10:24:41;98328.25;;;6.47;100.00
78741;BME280;68062;48.726;9.370;2023-04-25T10:27:10;98314.44;;;6.21;100.00
78741;BME280;68062;48.726;9.370;2023-04-25T10:29:37;98323.72;;;6.14;100.00
78741;BME280;68062;48.726;9.370;2023-04-25T10:32:09;98339.94;;;6.19;100.00
78741;BME280;68062;48.726;9.370;2023-04-25T10:34:41;98339.13;;;6.25;100.00
78741;BME280;68062;48.726;9.370;2023-04-25T10:37:09;98346.69;;;6.14;100.00
78741;BME280;68062;48.726;9.370;2023-04-25T10:39:38;98332.72;;;5.81;100.00
78741;BME280;68062;48.726;9.370;2023-04-25T10:42:05;98355.59;;;5.70;100.00
78741;BME280;68062;48.726;9.370;2023-04-25T10:44:33;98344.53;;;5.72;100.00
78741;BME280;68062;48.726;9.370;2023-04-25T10:47:01;98356.59;;;5.84;100.00
78741;BME280;68062;48.726;9.370;2023-04-25T10:49:33;98363.41;;;5.87;100.00
78741;BME280;68062;48.726;9.370;2023-04-25T10:52:25;98362.56;;;5.86;100.00
78741;BME280;68062;48.726;9.370;2023-04-25T10:54:56;98363.44;;;5.90;100.00
78741;BME280;68062;48.726;9.370;2023-04-25T10:57:27;98347.22;;;5.83;100.00
78741;BME280;68062;48.726;9.370;2023-04-25T10:59:58;98368.78;;;6.07;100.00
78741;BME280;68062;48.726;9.370;2023-04-25T11:02:26;98375.75;;;6.27;100.00
78741;BME280;68062;48.726;9.370;2023-04-25T11:04:53;98371.66;;;6.44;100.00
78741;BME280;68062;48.726;9.370;2023-04-25T11:07:30;98362.38;;;6.53;100.00
78741;BME280;68062;48.726;9.370;2023-04-25T11:10:02;98380.28;;;6.59;100.00
78741;BME280;68062;48.726;9.370;2023-04-25T11:12:30;98387.00;;;6.47;100.00
78741;BME280;68062;48.726;9.370;2023-04-25T11:14:59;98388.19;;;5.96;100.00
78741;BME280;68062;48.726;9.370;2023-04-25T11:17:26;98386.47;;;5.96;100.00
78741;BME280;68062;48.726;9.370;2023-04-25T11:19:53;98403.56;;;6.00;100.00
78741;BME280;68062;48.726;9.370;2023-04-25T11:22:22;98391.81;;;6.15;100.00
78741;BME280;68062;48.726;9.370;2023-04-25T11:24:50;98396.16;;;6.25;100.00
78741;BME280;68062;48.726;9.370;2023-04-25T11:27:17;98393.72;;;6.36;100.00
78741;BME280;68062;48.726;9.370;2023-04-25T11:29:43;98406.25;;;6.13;100.00
78741;BME280;68062;48.726;9.370;2023-04-25T11:32:10;98402.66;;;5.97;100.00
78741;BME280;68062;48.726;9.370;2023-04-25T11:34:37;98367.56;;;5.79;100.00
78741;BME280;68062;48.726;9.370;2023-04-25T11:37:04;98411.44;;;6.17;100.00
78741;BME280;68062;48.726;9.370;2023-04-25T11:39:31;98417.25;;;6.06;100.00
78741;BME280;68062;48.726;9.370;2023-04-25T11:41:59;98416.47;;;6.11;100.00
78741;BME280;68062;48.726;9.370;2023-04-25T11:44:26;98423.44;;;6.28;100.00
78741;BME280;68062;48.726;9.370;2023-04-25T11:46:55;98407.19;;;6.21;100.00
78741;BME280;68062;48.726;9.370;2023-04-25T11:49:21;98421.81;;;6.36;100.00
78741;BME280;68062;48.726;9.370;2023-04-25T11:51:50;98425.66;;;6.86;100.00
78741;BME280;68062;48.726;9.370;2023-04-25T11:54:17;98424.00;;;6.96;100.00
78741;BME280;68062;48.726;9.370;2023-04-25T11:56:45;98426.00;;;7.41;100.00
78741;BME280;68062;48.726;9.370;2023-04-25T11:59:13;98424.38;;;7.58;100.00
78741;BME280;68062;48.726;9.370;2023-04-25T12:01:49;98432.16;;;7.78;100.00
78741;BME280;68062;48.726;9.370;2023-04-25T12:04:17;98433.94;;;8.00;96.78
78741;BME280;68062;48.726;9.370;2023-04-25T12:06:46;98430.53;;;8.04;96.09
78741;BME280;68062;48.726;9.370;2023-04-25T12:09:14;98439.94;;;8.16;97.13
78741;BME280;68062;48.726;9.370;2023-04-25T12:11:43;98408.97;;;7.49;93.32
78741;BME280;68062;48.726;9.370;2023-04-25T12:14:10;98441.47;;;7.64;98.19
78741;BME280;68062;48.726;9.370;2023-04-25T12:16:43;98431.75;;;7.09;97.32
78741;BME280;68062;48.726;9.370;2023-04-25T12:19:13;98443.81;;;7.28;100.00
78741;BME280;68062;48.726;9.370;2023-04-25T12:21:41;98447.38;;;7.47;99.00
78741;BME280;68062;48.726;9.370;2023-04-25T12:24:12;98436.19;;;7.33;97.40
78741;BME280;68062;48.726;9.370;2023-04-25T12:26:50;98454.06;;;7.31;98.57
78741;BME280;68062;48.726;9.370;2023-04-25T12:29:19;98453.22;;;7.31;99.02
78741;BME280;68062;48.726;9.370;2023-04-25T12:31:47;98454.66;;;6.91;100.00
78741;BME280;68062;48.726;9.370;2023-04-25T12:34:14;98427.66;;;7.34;95.97
78741;BME280;68062;48.726;9.370;2023-04-25T12:36:41;98458.63;;;7.88;96.44
78741;BME280;68062;48.726;9.370;2023-04-25T12:39:07;98459.50;;;7.93;95.49
78741;BME280;68062;48.726;9.370;2023-04-25T12:41:35;98462.97;;;8.02;91.06
78741;BME280;68062;48.726;9.370;2023-04-25T12:44:03;98460.47;;;8.25;93.89
78741;BME280;68062;48.726;9.370;2023-04-25T12:46:30;98460.56;;;8.68;94.65
78741;BME280;68062;48.726;9.370;2023-04-25T12:48:58;98462.28;;;8.62;91.04
78741;BME280;68062;48.726;9.370;2023-04-25T12:51:25;98468.25;;;8.51;94.85
78741;BME280;68062;48.726;9.370;2023-04-25T12:53:53;98467.25;;;8.09;91.18
78741;BME280;68062;48.726;9.370;2023-04-25T12:56:19;98472.00;;;7.33;97.56
78741;BME280;68062;48.726;9.370;2023-04-25T12:58:46;98477.28;;;7.58;97.17
78741;BME280;68062;48.726;9.370;2023-04-25T13:01:13;98468.94;;;8.04;94.44
78741;BME280;68062;48.726;9.370;2023-04-25T13:03:40;98461.25;;;8.04;90.17
78741;BME280;68062;48.726;9.370;2023-04-25T13:06:08;98472.41;;;8.26;91.22
78741;BME280;68062;48.726;9.370;2023-04-25T13:08:35;98466.47;;;8.32;90.81
78741;BME280;68062;48.726;9.370;2023-04-25T13:11:04;98467.22;;;7.97;92.76
78741;BME280;68062;48.726;9.370;2023-04-25T13:13:30;98464.66;;;8.04;97.83
78741;BME280;68062;48.726;9.370;2023-04-25T13:16:00;98450.22;;;8.28;94.50
78741;BME280;68062;48.726;9.370;2023-04-25T13:18:27;98457.09;;;9.33;93.19
78741;BME280;68062;48.726;9.370;2023-04-25T13:20:54;98441.63;;;9.69;85.72